createdAt,value
2022-12-22T00:02:47.578Z,97646.25
2022-12-22T00:07:50.975Z,97642.66
2022-12-22T00:12:55.203Z,97652.31
2022-12-22T00:17:58.431Z,97650.22
2022-12-22T00:23:02.275Z,97654.91
2022-12-22T00:28:14.816Z,97654.66
2022-12-22T00:33:20.287Z,97654.09
2022-12-22T00:38:23.699Z,97640.69
2022-12-22T00:43:26.899Z,97639.88
2022-12-22T00:48:30.054Z,97646.25
2022-12-22T00:53:34.142Z,97643.47
2022-12-22T00:58:37.369Z,97643.09
2022-12-22T01:03:40.690Z,97636.09
2022-12-22T01:08:44.443Z,97635.84
2022-12-22T01:13:47.769Z,97612.22
2022-12-22T01:18:50.817Z,97615.72
2022-12-22T01:23:55.341Z,97606.63
2022-12-22T01:28:59.067Z,97614.91
2022-12-22T01:34:02.500Z,97609.41
2022-12-22T01:39:06.011Z,97615.44
2022-12-22T01:44:18.558Z,97610.16
2022-12-22T01:49:27.749Z,97616.66
2022-12-22T01:54:31.502Z,97611.97
2022-12-22T01:59:35.224Z,97616.50
2022-12-22T02:04:42.862Z,97613.81
2022-12-22T02:10:03.739Z,97622.44
2022-12-22T02:15:25.690Z,97613.59
2022-12-22T02:20:37.477Z,97615.44
2022-12-22T02:25:53.686Z,97617.91
2022-12-22T02:30:57.620Z,97617.09
2022-12-22T02:36:22.775Z,97612.53
2022-12-22T02:41:49.902Z,97621.63
2022-12-22T02:47:03.295Z,97620.47
2022-12-22T02:52:33.537Z,97624.47
2022-12-22T02:57:36.920Z,97617.34
2022-12-22T03:02:40.849Z,97623.72
2022-12-22T03:07:44.076Z,97627.22
2022-12-22T03:12:47.256Z,97623.97
2022-12-22T03:17:50.642Z,97624.56
2022-12-22T03:22:53.993Z,97627.22
2022-12-22T03:28:02.168Z,97634.22
2022-12-22T03:33:06.474Z,97636.88
2022-12-22T03:38:10.097Z,97640.63
2022-12-22T03:43:17.398Z,97643.75
2022-12-22T03:48:20.886Z,97637.03
2022-12-22T03:53:24.390Z,97655.84
2022-12-22T03:58:27.723Z,97652.66
2022-12-22T04:03:31.282Z,97655.59
2022-12-22T04:08:37.814Z,97660.00
2022-12-22T04:13:41.267Z,97671.16
2022-12-22T04:18:44.731Z,97672.25
2022-12-22T04:23:48.159Z,97687.09
2022-12-22T04:28:52.830Z,97684.66
2022-12-22T04:33:56.446Z,97690.81
2022-12-22T04:38:59.790Z,97701.06
2022-12-22T04:44:03.413Z,97697.75
2022-12-22T04:49:06.886Z,97698.72
2022-12-22T04:54:11.780Z,97697.75
2022-12-22T04:59:15.250Z,97704.88
2022-12-22T05:04:23.520Z,97710.88
2022-12-22T05:09:27.816Z,97715.41
2022-12-22T05:14:32.131Z,97710.88
2022-12-22T05:19:36.281Z,97727.91
2022-12-22T05:24:39.450Z,97730.44
2022-12-22T05:29:42.995Z,97734.91
2022-12-22T05:34:47.849Z,97732.59
2022-12-22T05:39:52.037Z,97740.50
2022-12-22T05:44:55.507Z,97743.50
2022-12-22T05:49:59.456Z,97749.63
2022-12-22T05:55:03.666Z,97750.00
2022-12-22T06:00:10.188Z,97751.34
2022-12-22T06:05:17.450Z,97743.84
2022-12-22T06:10:21.128Z,97752.19
2022-12-22T06:15:24.505Z,97756.25
2022-12-22T06:20:27.683Z,97760.38
2022-12-22T06:25:30.948Z,97764.22
2022-12-22T06:30:34.258Z,97757.63
2022-12-22T06:35:37.793Z,97765.34
2022-12-22T06:40:42.864Z,97780.53
2022-12-22T06:45:47.344Z,97777.56
2022-12-22T06:50:51.104Z,97777.47
2022-12-22T06:55:54.412Z,97779.63
2022-12-22T07:00:57.595Z,97785.50
2022-12-22T07:06:01.727Z,97782.31
2022-12-22T07:11:06.912Z,97796.22
2022-12-22T07:16:11.436Z,97802.31
2022-12-22T07:21:18.913Z,97791.88
2022-12-22T07:26:22.392Z,97796.09
2022-12-22T07:31:26.441Z,97791.25
2022-12-22T07:36:29.833Z,97781.47
2022-12-22T07:41:32.915Z,97774.81
2022-12-22T07:46:40.331Z,97777.53
2022-12-22T07:51:46.203Z,97773.91
2022-12-22T07:56:49.823Z,97769.94
2022-12-22T08:01:53.354Z,97759.34
2022-12-22T08:06:57.011Z,97756.53
2022-12-22T08:12:00.485Z,97747.78
2022-12-22T08:17:04.051Z,97742.06
2022-12-22T08:22:09.711Z,97732.38
2022-12-22T08:27:22.419Z,97735.28
2022-12-22T08:32:30.607Z,97730.84
2022-12-22T08:37:37.434Z,97720.94
2022-12-22T08:42:41.324Z,97717.66
2022-12-22T08:47:44.676Z,97710.59
2022-12-22T08:52:48.216Z,97704.63
2022-12-22T08:57:56.162Z,97705.16
2022-12-22T09:02:59.919Z,97694.63
2022-12-22T09:08:03.543Z,97684.88
2022-12-22T09:13:06.780Z,97684.38
2022-12-22T09:18:09.955Z,97675.47
2022-12-22T09:23:12.992Z,97668.41
2022-12-22T09:28:16.983Z,97660.19
2022-12-22T09:33:20.940Z,97650.91
2022-12-22T09:38:43.918Z,97635.00
2022-12-22T09:43:48.191Z,97631.16
2022-12-22T09:48:53.140Z,97629.06
2022-12-22T09:54:01.111Z,97617.25
2022-12-22T09:59:16.656Z,97615.00
2022-12-22T10:04:49.519Z,97614.75
2022-12-22T10:09:54.362Z,97606.28
2022-12-22T10:14:57.940Z,97607.38
2022-12-22T10:20:21.281Z,97598.00
2022-12-22T10:26:26.825Z,97597.00
2022-12-22T10:31:28.984Z,97584.47
2022-12-22T10:36:33.360Z,97578.13
2022-12-22T10:41:48.828Z,97571.25
2022-12-22T10:46:58.234Z,97564.00
2022-12-22T10:52:15.826Z,97557.53
2022-12-22T10:57:19.348Z,97547.22
2022-12-22T11:02:23.227Z,97546.75
2022-12-22T11:07:31.306Z,97540.28
2022-12-22T11:12:56.885Z,97533.06
2022-12-22T11:18:27.665Z,97537.13
2022-12-22T11:23:39.679Z,97534.75
2022-12-22T11:28:58.088Z,97528.78
2022-12-22T11:34:21.442Z,97525.59
2022-12-22T11:39:35.750Z,97520.19
2022-12-22T11:44:55.733Z,97521.75
2022-12-22T11:50:57.602Z,97509.09
2022-12-22T11:56:23.607Z,97511.03
2022-12-22T12:01:48.303Z,97510.28
2022-12-22T12:07:06.087Z,97517.88
2022-12-22T12:12:49.675Z,97514.59
2022-12-22T12:18:30.845Z,97506.78
2022-12-22T12:24:27.107Z,97517.06
2022-12-22T12:29:42.085Z,97518.38
2022-12-22T12:34:51.638Z,97514.28
2022-12-22T12:40:22.883Z,97509.97
2022-12-22T12:45:38.846Z,97511.84
2022-12-22T12:50:42.329Z,97511.31
2022-12-22T12:55:48.676Z,97520.53
2022-12-22T13:00:57.105Z,97512.44
2022-12-22T13:06:04.817Z,97506.78
2022-12-22T13:11:11.167Z,97505.16
2022-12-22T13:16:14.405Z,97517.25
2022-12-22T13:26:48.616Z,97507.19
2022-12-22T13:32:14.689Z,97503.09
2022-12-22T13:37:23.490Z,97491.22
2022-12-22T13:42:28.262Z,97488.72
2022-12-22T13:47:32.840Z,97484.09
2022-12-22T13:52:36.609Z,97487.81
2022-12-22T13:57:40.931Z,97484.72
2022-12-22T14:02:45.434Z,97487.88
2022-12-22T14:08:03.174Z,97487.19
2022-12-22T14:13:14.846Z,97478.69
2022-12-22T14:18:27.141Z,97486.06
2022-12-22T14:23:39.065Z,97482.91
2022-12-22T14:28:48.404Z,97481.38
2022-12-22T14:33:58.458Z,97479.31
2022-12-22T14:39:10.330Z,97478.06
2022-12-22T14:44:16.676Z,97473.94
2022-12-22T14:49:20.499Z,97474.59
2022-12-22T14:54:27.372Z,97478.25
2022-12-22T14:59:30.954Z,97481.69
2022-12-22T15:04:34.372Z,97481.59
2022-12-22T15:10:13.864Z,97483.66
2022-12-22T15:15:01.346Z,97493.81
2022-12-22T15:20:06.949Z,97485.19
2022-12-22T15:25:25.113Z,97503.44
2022-12-22T15:30:28.747Z,97503.09
2022-12-22T15:35:34.815Z,97523.22
2022-12-22T15:40:40.190Z,97526.63
2022-12-22T15:45:45.140Z,97526.78
2022-12-22T15:50:48.643Z,97522.59
2022-12-22T15:55:55.241Z,97521.69
2022-12-22T16:00:58.702Z,97526.69
2022-12-22T16:06:02.335Z,97529.88
2022-12-22T16:11:08.363Z,97527.66
2022-12-22T16:16:12.337Z,97532.94
2022-12-22T16:21:22.286Z,97532.84
2022-12-22T16:26:26.582Z,97540.78
2022-12-22T16:31:29.976Z,97544.19
2022-12-22T16:36:33.323Z,97538.50
2022-12-22T16:41:37.228Z,97539.78
2022-12-22T16:46:41.770Z,97539.19
2022-12-22T16:51:50.163Z,97536.75
2022-12-22T16:56:53.580Z,97543.66
2022-12-22T17:01:58.338Z,97535.59
2022-12-22T17:07:02.996Z,97547.63
2022-12-22T17:12:06.497Z,97545.16
2022-12-22T17:17:17.294Z,97540.84
2022-12-22T17:22:34.807Z,97537.25
2022-12-22T17:27:38.175Z,97540.41
2022-12-22T17:32:41.726Z,97538.44
2022-12-22T17:37:46.848Z,97534.94
2022-12-22T17:42:50.717Z,97535.19
2022-12-22T17:47:54.123Z,97532.38
2022-12-22T17:52:58.026Z,97538.44
2022-12-22T17:58:01.375Z,97531.09
2022-12-22T18:03:04.804Z,97540.69
2022-12-22T18:08:14.299Z,97526.44
2022-12-22T18:13:23.354Z,97533.91
2022-12-22T18:18:26.952Z,97529.03
2022-12-22T18:23:33.036Z,97529.25
2022-12-22T18:28:36.529Z,97519.78
2022-12-22T18:33:39.947Z,97520.59
2022-12-22T18:38:43.403Z,97510.00
2022-12-22T18:43:46.945Z,97509.56
2022-12-22T18:48:53.558Z,97507.31
2022-12-22T18:53:57.444Z,97502.78
2022-12-22T18:59:00.901Z,97495.78
2022-12-22T19:04:05.119Z,97499.06
2022-12-22T19:09:15.711Z,97494.72
2022-12-22T19:14:22.468Z,97481.00
2022-12-22T19:19:26.127Z,97476.88
2022-12-22T19:24:29.671Z,97476.44
2022-12-22T19:29:34.521Z,97463.84
2022-12-22T19:34:38.017Z,97470.50
2022-12-22T19:39:41.515Z,97470.72
2022-12-22T19:44:45.172Z,97466.41
2022-12-22T19:49:49.828Z,97466.06
2022-12-22T19:54:53.402Z,97463.03
2022-12-22T19:59:58.097Z,97457.31
2022-12-22T20:05:01.630Z,97451.75
2022-12-22T20:10:07.513Z,97458.72
2022-12-22T20:15:26.998Z,97454.19
2022-12-22T20:20:38.773Z,97451.50
2022-12-22T20:25:45.811Z,97456.63
2022-12-22T20:30:50.694Z,97451.25
2022-12-22T20:35:55.835Z,97457.22
2022-12-22T20:40:59.547Z,97439.25
2022-12-22T20:46:12.760Z,97450.56
2022-12-22T20:51:21.080Z,97439.03
2022-12-22T20:56:36.776Z,97446.25
2022-12-22T21:01:40.307Z,97441.94
2022-12-22T21:06:52.815Z,97442.16
2022-12-22T21:11:56.292Z,97444.03
2022-12-22T21:17:00.439Z,97432.50
2022-12-22T21:22:06.385Z,97446.13
2022-12-22T21:27:19.692Z,97437.72
2022-12-22T21:32:23.252Z,97437.97
2022-12-22T21:37:26.828Z,97443.00
2022-12-22T21:42:30.490Z,97427.63
2022-12-22T21:47:34.127Z,97426.16
2022-12-22T21:52:37.676Z,97422.09
2022-12-22T21:57:41.750Z,97417.00
2022-12-22T22:02:46.370Z,97416.63
2022-12-22T22:07:49.970Z,97419.31
2022-12-22T22:12:53.765Z,97406.59
2022-12-22T22:18:02.973Z,97403.91
2022-12-22T22:23:13.474Z,97402.91
2022-12-22T22:28:16.874Z,97401.47
2022-12-22T22:33:20.385Z,97392.88
2022-12-22T22:38:23.800Z,97391.50
2022-12-22T22:43:27.328Z,97393.81
2022-12-22T22:48:30.791Z,97384.47
2022-12-22T22:53:35.384Z,97387.41
2022-12-22T22:58:38.680Z,97385.78
2022-12-22T23:03:41.968Z,97389.75
2022-12-22T23:08:48.640Z,97383.31
2022-12-22T23:13:54.406Z,97390.56
2022-12-22T23:18:57.880Z,97387.06
2022-12-22T23:24:01.716Z,97373.66
2022-12-22T23:29:06.417Z,97385.41
2022-12-22T23:34:11.939Z,97379.03
2022-12-22T23:39:15.325Z,97372.63
2022-12-22T23:44:18.385Z,97369.94
2022-12-22T23:49:21.494Z,97357.09
2022-12-22T23:54:24.671Z,97355.72
2022-12-22T23:59:27.908Z,97363.16
